sensor_id;sensor_type;location;lat;lon;timestamp;temperature;humidity
5605;DHT22;9297;47.258;11.362;2024-02-26T00:01:55;3.30;89.30
5605;DHT22;9297;47.258;11.362;2024-02-26T00:04:22;3.30;90.00
5605;DHT22;9297;47.258;11.362;2024-02-26T00:06:49;3.20;91.80
5605;DHT22;9297;47.258;11.362;2024-02-26T00:09:16;3.20;90.70
5605;DHT22;9297;47.258;11.362;2024-02-26T00:11:43;3.10;91.80
5605;DHT22;9297;47.258;11.362;2024-02-26T00:14:10;3.00;93.60
5605;DHT22;9297;47.258;11.362;2024-02-26T00:16:39;2.90;94.70
5605;DHT22;9297;47.258;11.362;2024-02-26T00:19:08;2.80;95.30
5605;DHT22;9297;47.258;11.362;2024-02-26T00:21:35;2.70;95.70
5605;DHT22;9297;47.258;11.362;2024-02-26T00:24:02;2.90;95.60
5605;DHT22;9297;47.258;11.362;2024-02-26T00:26:29;2.70;95.60
5605;DHT22;9297;47.258;11.362;2024-02-26T00:28:56;2.70;96.30
5605;DHT22;9297;47.258;11.362;2024-02-26T00:31:23;2.80;95.30
5605;DHT22;9297;47.258;11.362;2024-02-26T00:33:50;2.90;95.00
5605;DHT22;9297;47.258;11.362;2024-02-26T00:36:18;3.00;94.50
5605;DHT22;9297;47.258;11.362;2024-02-26T00:38:45;3.00;93.50
5605;DHT22;9297;47.258;11.362;2024-02-26T00:41:12;3.10;93.30
5605;DHT22;9297;47.258;11.362;2024-02-26T00:43:40;3.00;92.90
5605;DHT22;9297;47.258;11.362;2024-02-26T00:46:07;3.10;92.90
5605;DHT22;9297;47.258;11.362;2024-02-26T00:48:34;3.00;93.70
5605;DHT22;9297;47.258;11.362;2024-02-26T00:51:01;3.00;93.50
5605;DHT22;9297;47.258;11.362;2024-02-26T00:53:29;3.00;93.00
5605;DHT22;9297;47.258;11.362;2024-02-26T00:55:56;3.00;93.90
5605;DHT22;9297;47.258;11.362;2024-02-26T00:58:23;2.90;92.90
5605;DHT22;9297;47.258;11.362;2024-02-26T01:00:50;3.00;92.90
5605;DHT22;9297;47.258;11.362;2024-02-26T01:03:17;3.10;91.90
5605;DHT22;9297;47.258;11.362;2024-02-26T01:05:45;3.10;92.00
5605;DHT22;9297;47.258;11.362;2024-02-26T01:08:12;3.00;92.90
5605;DHT22;9297;47.258;11.362;2024-02-26T01:10:41;2.90;93.30
5605;DHT22;9297;47.258;11.362;2024-02-26T01:13:07;3.00;92.70
5605;DHT22;9297;47.258;11.362;2024-02-26T01:15:35;2.90;93.00
5605;DHT22;9297;47.258;11.362;2024-02-26T01:18:02;2.90;92.60
5605;DHT22;9297;47.258;11.362;2024-02-26T01:20:29;2.80;94.10
5605;DHT22;9297;47.258;11.362;2024-02-26T01:22:56;2.90;94.00
5605;DHT22;9297;47.258;11.362;2024-02-26T01:25:23;2.90;94.20
5605;DHT22;9297;47.258;11.362;2024-02-26T01:27:51;2.90;93.90
5605;DHT22;9297;47.258;11.362;2024-02-26T01:30:18;2.80;94.50
5605;DHT22;9297;47.258;11.362;2024-02-26T01:32:45;2.90;94.20
5605;DHT22;9297;47.258;11.362;2024-02-26T01:35:12;2.90;93.60
5605;DHT22;9297;47.258;11.362;2024-02-26T01:37:39;3.00;93.30
5605;DHT22;9297;47.258;11.362;2024-02-26T01:40:07;3.00;92.40
5605;DHT22;9297;47.258;11.362;2024-02-26T01:42:34;2.80;93.20
5605;DHT22;9297;47.258;11.362;2024-02-26T01:45:04;2.80;94.90
5605;DHT22;9297;47.258;11.362;2024-02-26T01:47:31;2.80;95.30
5605;DHT22;9297;47.258;11.362;2024-02-26T01:49:59;2.80;94.80
5605;DHT22;9297;47.258;11.362;2024-02-26T01:52:26;2.80;94.80
5605;DHT22;9297;47.258;11.362;2024-02-26T01:54:53;3.00;93.60
5605;DHT22;9297;47.258;11.362;2024-02-26T01:57:20;2.90;94.10
5605;DHT22;9297;47.258;11.362;2024-02-26T01:59:47;2.70;96.00
5605;DHT22;9297;47.258;11.362;2024-02-26T02:02:16;2.60;96.20
5605;DHT22;9297;47.258;11.362;2024-02-26T02:04:44;2.70;95.50
5605;DHT22;9297;47.258;11.362;2024-02-26T02:07:11;2.80;94.60
5605;DHT22;9297;47.258;11.362;2024-02-26T02:09:39;2.50;96.90
5605;DHT22;9297;47.258;11.362;2024-02-26T02:12:06;2.70;96.10
5605;DHT22;9297;47.258;11.362;2024-02-26T02:14:33;2.80;94.80
5605;DHT22;9297;47.258;11.362;2024-02-26T02:17:00;2.70;95.10
5605;DHT22;9297;47.258;11.362;2024-02-26T02:19:29;2.60;95.20
5605;DHT22;9297;47.258;11.362;2024-02-26T02:21:57;2.50;96.60
5605;DHT22;9297;47.258;11.362;2024-02-26T02:24:24;2.50;96.20
5605;DHT22;9297;47.258;11.362;2024-02-26T02:26:51;2.50;96.40
5605;DHT22;9297;47.258;11.362;2024-02-26T02:29:18;2.50;95.50
5605;DHT22;9297;47.258;11.362;2024-02-26T02:31:46;2.60;94.90
5605;DHT22;9297;47.258;11.362;2024-02-26T02:34:19;2.60;94.60
5605;DHT22;9297;47.258;11.362;2024-02-26T02:36:51;2.60;94.90
5605;DHT22;9297;47.258;11.362;2024-02-26T02:39:19;2.60;95.60
5605;DHT22;9297;47.258;11.362;2024-02-26T02:41:47;2.60;94.60
5605;DHT22;9297;47.258;11.362;2024-02-26T02:44:14;2.50;95.10
5605;DHT22;9297;47.258;11.362;2024-02-26T02:46:41;2.50;94.40
5605;DHT22;9297;47.258;11.362;2024-02-26T02:49:08;2.50;95.00
5605;DHT22;9297;47.258;11.362;2024-02-26T02:51:36;2.40;95.00
5605;DHT22;9297;47.258;11.362;2024-02-26T02:54:03;2.60;94.40
5605;DHT22;9297;47.258;11.362;2024-02-26T02:56:31;2.60;93.80
5605;DHT22;9297;47.258;11.362;2024-02-26T02:59:00;2.70;92.50
5605;DHT22;9297;47.258;11.362;2024-02-26T03:01:27;2.50;93.90
5605;DHT22;9297;47.258;11.362;2024-02-26T03:03:54;2.60;93.90
5605;DHT22;9297;47.258;11.362;2024-02-26T03:06:21;2.60;92.90
5605;DHT22;9297;47.258;11.362;2024-02-26T03:08:48;2.60;93.50
5605;DHT22;9297;47.258;11.362;2024-02-26T03:11:15;2.60;93.10
5605;DHT22;9297;47.258;11.362;2024-02-26T03:13:44;2.60;92.90
5605;DHT22;9297;47.258;11.362;2024-02-26T03:16:11;2.40;95.40
5605;DHT22;9297;47.258;11.362;2024-02-26T03:18:39;2.40;96.30
5605;DHT22;9297;47.258;11.362;2024-02-26T03:21:06;2.40;97.00
5605;DHT22;9297;47.258;11.362;2024-02-26T03:23:33;2.20;97.40
5605;DHT22;9297;47.258;11.362;2024-02-26T03:26:00;2.20;98.70
5605;DHT22;9297;47.258;11.362;2024-02-26T03:28:27;2.30;97.90
5605;DHT22;9297;47.258;11.362;2024-02-26T03:30:56;2.40;97.30
5605;DHT22;9297;47.258;11.362;2024-02-26T03:33:22;2.40;96.60
5605;DHT22;9297;47.258;11.362;2024-02-26T03:35:50;2.40;97.00
5605;DHT22;9297;47.258;11.362;2024-02-26T03:38:17;2.30;99.70
5605;DHT22;9297;47.258;11.362;2024-02-26T03:40:44;2.20;99.60
5605;DHT22;9297;47.258;11.362;2024-02-26T03:43:10;2.20;99.50
5605;DHT22;9297;47.258;11.362;2024-02-26T03:45:37;2.20;99.90
5605;DHT22;9297;47.258;11.362;2024-02-26T03:48:06;2.20;99.90
5605;DHT22;9297;47.258;11.362;2024-02-26T03:50:34;2.20;99.70
5605;DHT22;9297;47.258;11.362;2024-02-26T03:53:01;2.30;99.40
5605;DHT22;9297;47.258;11.362;2024-02-26T03:55:28;2.40;98.50
5605;DHT22;9297;47.258;11.362;2024-02-26T03:57:55;2.30;97.90
5605;DHT22;9297;47.258;11.362;2024-02-26T04:00:22;2.00;99.90
5605;DHT22;9297;47.258;11.362;2024-02-26T04:02:49;2.30;99.90
5605;DHT22;9297;47.258;11.362;2024-02-26T04:05:18;2.40;98.50
5605;DHT22;9297;47.258;11.362;2024-02-26T04:07:45;2.40;98.10
5605;DHT22;9297;47.258;11.362;2024-02-26T04:10:12;2.40;97.00
5605;DHT22;9297;47.258;11.362;2024-02-26T04:12:39;2.50;96.70
5605;DHT22;9297;47.258;11.362;2024-02-26T04:15:07;2.50;96.40
5605;DHT22;9297;47.258;11.362;2024-02-26T04:17:34;2.30;98.20
5605;DHT22;9297;47.258;11.362;2024-02-26T04:20:01;2.30;99.40
5605;DHT22;9297;47.258;11.362;2024-02-26T04:22:30;2.20;99.70
5605;DHT22;9297;47.258;11.362;2024-02-26T04:24:56;2.20;99.90
5605;DHT22;9297;47.258;11.362;2024-02-26T04:27:23;2.30;99.90
5605;DHT22;9297;47.258;11.362;2024-02-26T04:29:50;2.40;99.40
5605;DHT22;9297;47.258;11.362;2024-02-26T04:32:17;2.30;99.10
5605;DHT22;9297;47.258;11.362;2024-02-26T04:34:44;2.20;99.90
5605;DHT22;9297;47.258;11.362;2024-02-26T04:37:11;2.20;99.90
5605;DHT22;9297;47.258;11.362;2024-02-26T04:39:40;2.10;99.90
5605;DHT22;9297;47.258;11.362;2024-02-26T04:42:07;2.20;99.90
5605;DHT22;9297;47.258;11.362;2024-02-26T04:44:34;2.20;99.90
5605;DHT22;9297;47.258;11.362;2024-02-26T04:47:00;2.30;99.90
5605;DHT22;9297;47.258;11.362;2024-02-26T04:49:27;2.20;99.90
5605;DHT22;9297;47.258;11.362;2024-02-26T04:51:55;2.20;99.90
5605;DHT22;9297;47.258;11.362;2024-02-26T04:54:21;2.30;99.90
5605;DHT22;9297;47.258;11.362;2024-02-26T04:56:50;2.30;99.90
5605;DHT22;9297;47.258;11.362;2024-02-26T04:59:17;2.30;98.80
5605;DHT22;9297;47.258;11.362;2024-02-26T05:01:44;2.30;99.20
5605;DHT22;9297;47.258;11.362;2024-02-26T05:04:11;2.20;99.30
5605;DHT22;9297;47.258;11.362;2024-02-26T05:06:38;2.20;99.80
5605;DHT22;9297;47.258;11.362;2024-02-26T05:09:05;2.30;99.70
5605;DHT22;9297;47.258;11.362;2024-02-26T05:11:32;2.20;99.90
5605;DHT22;9297;47.258;11.362;2024-02-26T05:14:01;2.20;99.90
5605;DHT22;9297;47.258;11.362;2024-02-26T05:16:28;2.20;99.90
5605;DHT22;9297;47.258;11.362;2024-02-26T05:18:54;2.10;99.70
5605;DHT22;9297;47.258;11.362;2024-02-26T05:21:21;2.10;99.90
5605;DHT22;9297;47.258;11.362;2024-02-26T05:23:49;1.90;99.90
5605;DHT22;9297;47.258;11.362;2024-02-26T05:26:19;2.00;99.90
5605;DHT22;9297;47.258;11.362;2024-02-26T05:28:47;1.90;99.90
5605;DHT22;9297;47.258;11.362;2024-02-26T05:31:15;2.10;99.90
5605;DHT22;9297;47.258;11.362;2024-02-26T05:33:42;2.10;99.90
5605;DHT22;9297;47.258;11.362;2024-02-26T05:36:10;2.00;99.90
5605;DHT22;9297;47.258;11.362;2024-02-26T05:38:37;2.10;99.90
5605;DHT22;9297;47.258;11.362;2024-02-26T05:41:04;2.10;99.90
5605;DHT22;9297;47.258;11.362;2024-02-26T05:43:31;2.20;99.90
5605;DHT22;9297;47.258;11.362;2024-02-26T05:45:58;2.20;99.90
5605;DHT22;9297;47.258;11.362;2024-02-26T05:48:26;2.30;99.80
5605;DHT22;9297;47.258;11.362;2024-02-26T05:50:53;2.30;99.90
5605;DHT22;9297;47.258;11.362;2024-02-26T05:53:20;2.30;99.90
5605;DHT22;9297;47.258;11.362;2024-02-26T05:55:47;2.40;99.00
5605;DHT22;9297;47.258;11.362;2024-02-26T05:58:14;2.30;99.70
5605;DHT22;9297;47.258;11.362;2024-02-26T06:00:41;2.30;99.00
5605;DHT22;9297;47.258;11.362;2024-02-26T06:03:08;2.30;99.40
5605;DHT22;9297;47.258;11.362;2024-02-26T06:05:37;5.60;99.90
5605;DHT22;9297;47.258;11.362;2024-02-26T06:08:04;6.70;99.90
5605;DHT22;9297;47.258;11.362;2024-02-26T06:10:31;6.90;88.10
5605;DHT22;9297;47.258;11.362;2024-02-26T06:12:59;7.20;93.10
5605;DHT22;9297;47.258;11.362;2024-02-26T06:15:25;7.70;80.60
5605;DHT22;9297;47.258;11.362;2024-02-26T06:17:53;6.10;73.30
5605;DHT22;9297;47.258;11.362;2024-02-26T06:20:20;4.50;81.60
5605;DHT22;9297;47.258;11.362;2024-02-26T06:22:48;4.00;85.50
5605;DHT22;9297;47.258;11.362;2024-02-26T06:25:15;3.70;87.40
5605;DHT22;9297;47.258;11.362;2024-02-26T06:27:42;3.60;89.40
5605;DHT22;9297;47.258;11.362;2024-02-26T06:30:10;3.30;90.60
5605;DHT22;9297;47.258;11.362;2024-02-26T06:32:37;3.20;92.70
5605;DHT22;9297;47.258;11.362;2024-02-26T06:35:05;3.10;92.20
5605;DHT22;9297;47.258;11.362;2024-02-26T06:37:34;3.10;93.60
5605;DHT22;9297;47.258;11.362;2024-02-26T06:40:03;2.90;94.10
5605;DHT22;9297;47.258;11.362;2024-02-26T06:42:30;3.00;94.50
5605;DHT22;9297;47.258;11.362;2024-02-26T06:44:57;2.90;96.50
5605;DHT22;9297;47.258;11.362;2024-02-26T06:47:24;2.70;97.50
5605;DHT22;9297;47.258;11.362;2024-02-26T06:50:06;2.60;99.10
5605;DHT22;9297;47.258;11.362;2024-02-26T06:52:34;2.70;98.60
5605;DHT22;9297;47.258;11.362;2024-02-26T06:55:02;2.50;99.60
5605;DHT22;9297;47.258;11.362;2024-02-26T06:57:29;2.60;99.20
5605;DHT22;9297;47.258;11.362;2024-02-26T06:59:56;2.70;98.70
5605;DHT22;9297;47.258;11.362;2024-02-26T07:02:23;2.70;99.80
5605;DHT22;9297;47.258;11.362;2024-02-26T07:04:50;3.60;96.90
5605;DHT22;9297;47.258;11.362;2024-02-26T07:07:17;3.40;94.20
5605;DHT22;9297;47.258;11.362;2024-02-26T07:09:44;3.20;95.10
5605;DHT22;9297;47.258;11.362;2024-02-26T07:12:12;3.20;94.60
5605;DHT22;9297;47.258;11.362;2024-02-26T07:14:39;3.20;95.10
5605;DHT22;9297;47.258;11.362;2024-02-26T07:17:06;3.10;96.30
5605;DHT22;9297;47.258;11.362;2024-02-26T07:19:34;3.10;97.70
5605;DHT22;9297;47.258;11.362;2024-02-26T07:22:01;3.00;97.30
5605;DHT22;9297;47.258;11.362;2024-02-26T07:24:28;3.00;97.80
5605;DHT22;9297;47.258;11.362;2024-02-26T07:26:55;3.20;97.10
5605;DHT22;9297;47.258;11.362;2024-02-26T07:29:23;3.10;96.40
5605;DHT22;9297;47.258;11.362;2024-02-26T07:31:50;3.00;97.20
5605;DHT22;9297;47.258;11.362;2024-02-26T07:34:17;3.00;97.30
5605;DHT22;9297;47.258;11.362;2024-02-26T07:36:44;3.10;96.00
5605;DHT22;9297;47.258;11.362;2024-02-26T07:39:11;3.20;94.90
5605;DHT22;9297;47.258;11.362;2024-02-26T07:41:38;3.10;95.60
5605;DHT22;9297;47.258;11.362;2024-02-26T07:44:05;3.10;96.20
5605;DHT22;9297;47.258;11.362;2024-02-26T07:46:33;3.20;95.90
5605;DHT22;9297;47.258;11.362;2024-02-26T07:49:00;3.20;95.50
5605;DHT22;9297;47.258;11.362;2024-02-26T07:51:27;3.20;96.90
5605;DHT22;9297;47.258;11.362;2024-02-26T07:53:54;3.10;97.40
5605;DHT22;9297;47.258;11.362;2024-02-26T07:56:22;3.20;96.80
5605;DHT22;9297;47.258;11.362;2024-02-26T07:58:49;3.20;97.10
5605;DHT22;9297;47.258;11.362;2024-02-26T08:01:16;3.30;96.40
5605;DHT22;9297;47.258;11.362;2024-02-26T08:03:44;3.40;96.30
5605;DHT22;9297;47.258;11.362;2024-02-26T08:06:11;3.60;93.90
5605;DHT22;9297;47.258;11.362;2024-02-26T08:08:38;3.50;95.30
5605;DHT22;9297;47.258;11.362;2024-02-26T08:11:05;3.60;94.10
5605;DHT22;9297;47.258;11.362;2024-02-26T08:13:32;3.60;95.10
5605;DHT22;9297;47.258;11.362;2024-02-26T08:15:59;3.60;94.90
5605;DHT22;9297;47.258;11.362;2024-02-26T08:18:26;3.70;95.20
5605;DHT22;9297;47.258;11.362;2024-02-26T08:20:55;3.90;93.30
5605;DHT22;9297;47.258;11.362;2024-02-26T08:23:22;3.90;92.70
5605;DHT22;9297;47.258;11.362;2024-02-26T08:25:48;3.80;92.10
5605;DHT22;9297;47.258;11.362;2024-02-26T08:28:15;3.80;92.80
5605;DHT22;9297;47.258;11.362;2024-02-26T08:30:42;4.00;91.90
5605;DHT22;9297;47.258;11.362;2024-02-26T08:33:09;3.90;92.00
5605;DHT22;9297;47.258;11.362;2024-02-26T08:35:37;4.00;92.90
5605;DHT22;9297;47.258;11.362;2024-02-26T08:38:05;3.90;93.50
5605;DHT22;9297;47.258;11.362;2024-02-26T08:40:32;4.00;91.00
5605;DHT22;9297;47.258;11.362;2024-02-26T08:42:59;4.10;91.40
5605;DHT22;9297;47.258;11.362;2024-02-26T08:45:26;4.20;90.10
5605;DHT22;9297;47.258;11.362;2024-02-26T08:47:56;4.20;89.50
5605;DHT22;9297;47.258;11.362;2024-02-26T08:50:23;4.20;89.20
5605;DHT22;9297;47.258;11.362;2024-02-26T08:52:50;4.30;89.20
5605;DHT22;9297;47.258;11.362;2024-02-26T08:55:18;4.20;88.80
5605;DHT22;9297;47.258;11.362;2024-02-26T08:57:46;4.30;89.80
5605;DHT22;9297;47.258;11.362;2024-02-26T09:00:13;4.40;91.00
5605;DHT22;9297;47.258;11.362;2024-02-26T09:02:40;4.40;90.70
5605;DHT22;9297;47.258;11.362;2024-02-26T09:05:07;4.60;88.50
5605;DHT22;9297;47.258;11.362;2024-02-26T09:07:34;4.60;89.60
5605;DHT22;9297;47.258;11.362;2024-02-26T09:10:02;4.70;90.80
5605;DHT22;9297;47.258;11.362;2024-02-26T09:12:30;4.70;87.90
5605;DHT22;9297;47.258;11.362;2024-02-26T09:14:57;4.80;86.90
5605;DHT22;9297;47.258;11.362;2024-02-26T09:17:24;4.80;87.50
5605;DHT22;9297;47.258;11.362;2024-02-26T09:19:51;4.80;86.40
5605;DHT22;9297;47.258;11.362;2024-02-26T09:22:18;4.90;86.80
5605;DHT22;9297;47.258;11.362;2024-02-26T09:24:45;4.90;86.60
5605;DHT22;9297;47.258;11.362;2024-02-26T09:27:12;5.00;85.00
5605;DHT22;9297;47.258;11.362;2024-02-26T09:29:40;5.10;85.90
5605;DHT22;9297;47.258;11.362;2024-02-26T09:32:07;5.20;85.20
5605;DHT22;9297;47.258;11.362;2024-02-26T09:34:34;5.30;82.00
5605;DHT22;9297;47.258;11.362;2024-02-26T09:37:01;5.30;80.30
5605;DHT22;9297;47.258;11.362;2024-02-26T09:39:41;5.40;80.40
5605;DHT22;9297;47.258;11.362;2024-02-26T09:42:09;5.30;80.90
5605;DHT22;9297;47.258;11.362;2024-02-26T09:44:41;5.30;81.20
5605;DHT22;9297;47.258;11.362;2024-02-26T09:47:11;5.30;80.70
5605;DHT22;9297;47.258;11.362;2024-02-26T09:49:38;5.40;80.30
5605;DHT22;9297;47.258;11.362;2024-02-26T09:52:06;5.50;80.30
5605;DHT22;9297;47.258;11.362;2024-02-26T09:54:35;5.50;78.70
5605;DHT22;9297;47.258;11.362;2024-02-26T09:57:03;5.60;79.50
5605;DHT22;9297;47.258;11.362;2024-02-26T09:59:37;5.60;79.30
5605;DHT22;9297;47.258;11.362;2024-02-26T10:02:09;5.60;79.30
5605;DHT22;9297;47.258;11.362;2024-02-26T10:04:38;5.60;80.50
5605;DHT22;9297;47.258;11.362;2024-02-26T10:07:10;5.60;81.10
5605;DHT22;9297;47.258;11.362;2024-02-26T10:09:37;5.70;81.40
5605;DHT22;9297;47.258;11.362;2024-02-26T10:12:05;5.80;79.10
5605;DHT22;9297;47.258;11.362;2024-02-26T10:14:32;5.90;78.30
5605;DHT22;9297;47.258;11.362;2024-02-26T10:16:59;6.00;76.50
5605;DHT22;9297;47.258;11.362;2024-02-26T10:19:28;6.20;74.60
5605;DHT22;9297;47.258;11.362;2024-02-26T10:22:00;6.20;73.40
5605;DHT22;9297;47.258;11.362;2024-02-26T10:24:28;6.20;72.90
5605;DHT22;9297;47.258;11.362;2024-02-26T10:26:56;6.30;73.00
5605;DHT22;9297;47.258;11.362;2024-02-26T10:29:24;6.30;74.50
5605;DHT22;9297;47.258;11.362;2024-02-26T10:31:51;6.30;75.50
5605;DHT22;9297;47.258;11.362;2024-02-26T10:34:19;6.50;73.80
5605;DHT22;9297;47.258;11.362;2024-02-26T10:36:47;6.70;72.80
5605;DHT22;9297;47.258;11.362;2024-02-26T10:39:20;6.80;73.60
5605;DHT22;9297;47.258;11.362;2024-02-26T10:41:48;7.00;75.20
5605;DHT22;9297;47.258;11.362;2024-02-26T10:44:15;7.00;71.80
5605;DHT22;9297;47.258;11.362;2024-02-26T10:46:46;7.20;70.60
5605;DHT22;9297;47.258;11.362;2024-02-26T10:49:14;7.40;72.30
5605;DHT22;9297;47.258;11.362;2024-02-26T10:51:44;7.50;71.80
5605;DHT22;9297;47.258;11.362;2024-02-26T10:54:16;7.70;70.20
5605;DHT22;9297;47.258;11.362;2024-02-26T10:56:43;8.00;70.00
5605;DHT22;9297;47.258;11.362;2024-02-26T10:59:13;8.40;66.90
5605;DHT22;9297;47.258;11.362;2024-02-26T11:01:41;8.60;65.20
5605;DHT22;9297;47.258;11.362;2024-02-26T11:04:10;8.60;68.50
5605;DHT22;9297;47.258;11.362;2024-02-26T11:06:38;9.40;66.90
5605;DHT22;9297;47.258;11.362;2024-02-26T11:09:06;9.60;63.00
5605;DHT22;9297;47.258;11.362;2024-02-26T11:11:36;9.90;62.60
5605;DHT22;9297;47.258;11.362;2024-02-26T11:14:03;9.80;59.70
5605;DHT22;9297;47.258;11.362;2024-02-26T11:16:31;9.80;53.20
5605;DHT22;9297;47.258;11.362;2024-02-26T11:18:59;10.00;50.50
5605;DHT22;9297;47.258;11.362;2024-02-26T11:21:27;9.90;50.30
5605;DHT22;9297;47.258;11.362;2024-02-26T11:23:54;10.00;47.60
5605;DHT22;9297;47.258;11.362;2024-02-26T11:26:22;10.10;47.40
5605;DHT22;9297;47.258;11.362;2024-02-26T11:28:52;10.10;46.90
5605;DHT22;9297;47.258;11.362;2024-02-26T11:31:20;10.20;48.80
5605;DHT22;9297;47.258;11.362;2024-02-26T11:33:47;10.30;46.70
5605;DHT22;9297;47.258;11.362;2024-02-26T11:36:14;10.30;45.90
5605;DHT22;9297;47.258;11.362;2024-02-26T11:38:44;10.30;46.00
5605;DHT22;9297;47.258;11.362;2024-02-26T11:41:11;10.30;45.90
5605;DHT22;9297;47.258;11.362;2024-02-26T11:43:52;10.30;45.80
5605;DHT22;9297;47.258;11.362;2024-02-26T11:46:26;10.30;45.30
5605;DHT22;9297;47.258;11.362;2024-02-26T11:48:56;10.50;44.30
5605;DHT22;9297;47.258;11.362;2024-02-26T11:51:25;10.50;44.60
5605;DHT22;9297;47.258;11.362;2024-02-26T11:53:53;10.50;45.20
5605;DHT22;9297;47.258;11.362;2024-02-26T11:56:21;10.60;43.60
5605;DHT22;9297;47.258;11.362;2024-02-26T11:58:49;10.60;43.60
5605;DHT22;9297;47.258;11.362;2024-02-26T12:01:43;10.70;43.90
5605;DHT22;9297;47.258;11.362;2024-02-26T12:04:18;10.50;43.10
5605;DHT22;9297;47.258;11.362;2024-02-26T12:06:48;10.70;42.40
5605;DHT22;9297;47.258;11.362;2024-02-26T12:09:33;10.60;42.90
5605;DHT22;9297;47.258;11.362;2024-02-26T12:12:02;10.70;43.70
5605;DHT22;9297;47.258;11.362;2024-02-26T12:14:32;10.70;43.20
5605;DHT22;9297;47.258;11.362;2024-02-26T12:17:01;10.70;43.30
5605;DHT22;9297;47.258;11.362;2024-02-26T12:19:28;10.80;43.20
5605;DHT22;9297;47.258;11.362;2024-02-26T12:21:55;10.80;41.90
5605;DHT22;9297;47.258;11.362;2024-02-26T12:24:22;10.80;43.40
5605;DHT22;9297;47.258;11.362;2024-02-26T12:26:49;10.80;42.80
5605;DHT22;9297;47.258;11.362;2024-02-26T12:29:16;10.80;43.40
5605;DHT22;9297;47.258;11.362;2024-02-26T12:31:43;10.70;44.20
5605;DHT22;9297;47.258;11.362;2024-02-26T12:34:12;10.60;42.60
5605;DHT22;9297;47.258;11.362;2024-02-26T12:36:39;10.50;43.70
5605;DHT22;9297;47.258;11.362;2024-02-26T12:39:07;10.50;43.10
5605;DHT22;9297;47.258;11.362;2024-02-26T12:41:34;10.60;43.40
5605;DHT22;9297;47.258;11.362;2024-02-26T12:44:01;10.50;43.60
5605;DHT22;9297;47.258;11.362;2024-02-26T12:46:28;10.50;43.80
5605;DHT22;9297;47.258;11.362;2024-02-26T12:48:56;10.50;45.40
5605;DHT22;9297;47.258;11.362;2024-02-26T12:51:25;10.40;44.50
5605;DHT22;9297;47.258;11.362;2024-02-26T12:53:52;10.40;44.60
5605;DHT22;9297;47.258;11.362;2024-02-26T12:56:21;10.40;44.40
5605;DHT22;9297;47.258;11.362;2024-02-26T12:58:50;10.40;44.60
5605;DHT22;9297;47.258;11.362;2024-02-26T13:01:22;10.50;44.20
5605;DHT22;9297;47.258;11.362;2024-02-26T13:03:51;10.40;46.00
5605;DHT22;9297;47.258;11.362;2024-02-26T13:06:19;10.30;49.90
5605;DHT22;9297;47.258;11.362;2024-02-26T13:08:48;10.20;51.80
5605;DHT22;9297;47.258;11.362;2024-02-26T13:11:15;10.10;53.40
5605;DHT22;9297;47.258;11.362;2024-02-26T13:13:47;10.00;52.80
5605;DHT22;9297;47.258;11.362;2024-02-26T13:16:15;10.00;53.40
5605;DHT22;9297;47.258;11.362;2024-02-26T13:18:42;10.00;53.80
5605;DHT22;9297;47.258;11.362;2024-02-26T13:21:10;10.00;53.60
5605;DHT22;9297;47.258;11.362;2024-02-26T13:23:38;10.00;52.30
5605;DHT22;9297;47.258;11.362;2024-02-26T13:26:07;10.00;52.70
5605;DHT22;9297;47.258;11.362;2024-02-26T13:28:34;10.00;54.10
5605;DHT22;9297;47.258;11.362;2024-02-26T13:31:01;10.00;54.10
5605;DHT22;9297;47.258;11.362;2024-02-26T13:33:29;10.10;52.00
5605;DHT22;9297;47.258;11.362;2024-02-26T13:35:57;10.10;54.40
5605;DHT22;9297;47.258;11.362;2024-02-26T13:38:25;9.80;56.20
5605;DHT22;9297;47.258;11.362;2024-02-26T13:40:52;9.90;57.10
5605;DHT22;9297;47.258;11.362;2024-02-26T13:43:21;9.90;59.00
5605;DHT22;9297;47.258;11.362;2024-02-26T13:45:48;9.90;58.80
5605;DHT22;9297;47.258;11.362;2024-02-26T13:48:15;9.90;60.00
5605;DHT22;9297;47.258;11.362;2024-02-26T13:50:43;9.70;59.10
5605;DHT22;9297;47.258;11.362;2024-02-26T13:53:11;9.70;61.30
5605;DHT22;9297;47.258;11.362;2024-02-26T13:55:39;9.60;60.40
5605;DHT22;9297;47.258;11.362;2024-02-26T13:58:06;9.60;58.30
5605;DHT22;9297;47.258;11.362;2024-02-26T14:00:35;9.50;59.20
5605;DHT22;9297;47.258;11.362;2024-02-26T14:03:02;9.60;60.20
5605;DHT22;9297;47.258;11.362;2024-02-26T14:05:30;9.60;60.00
5605;DHT22;9297;47.258;11.362;2024-02-26T14:07:57;9.60;60.00
5605;DHT22;9297;47.258;11.362;2024-02-26T14:10:24;9.60;59.70
5605;DHT22;9297;47.258;11.362;2024-02-26T14:12:51;9.60;61.10
5605;DHT22;9297;47.258;11.362;2024-02-26T14:15:18;9.60;61.80
5605;DHT22;9297;47.258;11.362;2024-02-26T14:17:47;9.60;61.10
5605;DHT22;9297;47.258;11.362;2024-02-26T14:20:14;9.60;60.80
5605;DHT22;9297;47.258;11.362;2024-02-26T14:22:41;9.60;61.70
5605;DHT22;9297;47.258;11.362;2024-02-26T14:25:09;9.60;63.50
5605;DHT22;9297;47.258;11.362;2024-02-26T14:27:36;9.70;62.30
5605;DHT22;9297;47.258;11.362;2024-02-26T14:30:04;9.80;60.30
5605;DHT22;9297;47.258;11.362;2024-02-26T14:32:31;9.70;61.00
5605;DHT22;9297;47.258;11.362;2024-02-26T14:34:59;9.80;61.10
5605;DHT22;9297;47.258;11.362;2024-02-26T14:37:27;9.70;62.50
5605;DHT22;9297;47.258;11.362;2024-02-26T14:39:54;9.70;61.90
5605;DHT22;9297;47.258;11.362;2024-02-26T14:42:21;9.70;61.90
5605;DHT22;9297;47.258;11.362;2024-02-26T14:44:48;9.70;60.40
5605;DHT22;9297;47.258;11.362;2024-02-26T14:47:15;9.80;61.20
5605;DHT22;9297;47.258;11.362;2024-02-26T14:49:42;9.70;63.50
5605;DHT22;9297;47.258;11.362;2024-02-26T14:52:10;9.80;63.30
5605;DHT22;9297;47.258;11.362;2024-02-26T14:54:37;9.80;61.60
5605;DHT22;9297;47.258;11.362;2024-02-26T14:57:05;9.70;62.00
5605;DHT22;9297;47.258;11.362;2024-02-26T14:59:32;9.70;63.10
5605;DHT22;9297;47.258;11.362;2024-02-26T15:01:59;9.70;58.40
5605;DHT22;9297;47.258;11.362;2024-02-26T15:04:26;9.80;57.50
5605;DHT22;9297;47.258;11.362;2024-02-26T15:06:53;9.90;52.50
5605;DHT22;9297;47.258;11.362;2024-02-26T15:09:22;10.00;50.90
5605;DHT22;9297;47.258;11.362;2024-02-26T15:11:49;10.20;50.40
5605;DHT22;9297;47.258;11.362;2024-02-26T15:14:16;10.30;50.90
5605;DHT22;9297;47.258;11.362;2024-02-26T15:16:43;10.30;51.20
5605;DHT22;9297;47.258;11.362;2024-02-26T15:19:10;10.40;47.70
5605;DHT22;9297;47.258;11.362;2024-02-26T15:21:43;10.50;48.50
5605;DHT22;9297;47.258;11.362;2024-02-26T15:24:10;10.50;46.20
5605;DHT22;9297;47.258;11.362;2024-02-26T15:26:39;10.60;46.10
5605;DHT22;9297;47.258;11.362;2024-02-26T15:29:06;10.60;46.90
5605;DHT22;9297;47.258;11.362;2024-02-26T15:31:33;10.60;46.00
5605;DHT22;9297;47.258;11.362;2024-02-26T15:34:00;10.60;47.50
5605;DHT22;9297;47.258;11.362;2024-02-26T15:36:27;10.60;48.30
5605;DHT22;9297;47.258;11.362;2024-02-26T15:38:54;10.50;46.80
5605;DHT22;9297;47.258;11.362;2024-02-26T15:41:21;10.60;47.20
5605;DHT22;9297;47.258;11.362;2024-02-26T15:43:50;10.50;45.70
5605;DHT22;9297;47.258;11.362;2024-02-26T15:46:17;10.50;46.60
5605;DHT22;9297;47.258;11.362;2024-02-26T15:48:44;10.40;46.80
5605;DHT22;9297;47.258;11.362;2024-02-26T15:51:18;10.30;48.00
5605;DHT22;9297;47.258;11.362;2024-02-26T15:53:45;10.30;47.60
5605;DHT22;9297;47.258;11.362;2024-02-26T15:56:12;10.30;48.10
5605;DHT22;9297;47.258;11.362;2024-02-26T15:58:40;10.30;47.40
5605;DHT22;9297;47.258;11.362;2024-02-26T16:01:08;10.30;47.70
5605;DHT22;9297;47.258;11.362;2024-02-26T16:03:48;10.30;47.50